sensor_id;sensor_type;location;lat;lon;timestamp;pressure;altitude;pressure_sealevel;temperature;humidity
12795;BME280;6461;42.666;23.296;2022-08-21T00:01:24;94183.81;;;21.53;100.00
12795;BME280;6461;42.666;23.296;2022-08-21T00:03:52;94181.72;;;21.36;100.00
12795;BME280;6461;42.666;23.296;2022-08-21T00:06:20;94181.03;;;21.43;100.00
12795;BME280;6461;42.666;23.296;2022-08-21T00:08:48;94179.16;;;21.47;100.00
12795;BME280;6461;42.666;23.296;2022-08-21T00:11:14;94191.41;;;21.51;100.00
12795;BME280;6461;42.666;23.296;2022-08-21T00:13:43;94169.88;;;21.37;100.00
12795;BME280;6461;42.666;23.296;2022-08-21T00:16:10;94172.31;;;21.49;100.00
12795;BME280;6461;42.666;23.296;2022-08-21T00:18:37;94161.16;;;21.40;100.00
12795;BME280;6461;42.666;23.296;2022-08-21T00:21:04;94169.66;;;21.49;100.00
12795;BME280;6461;42.666;23.296;2022-08-21T00:23:33;94153.84;;;21.33;100.00
12795;BME280;6461;42.666;23.296;2022-08-21T00:26:00;94166.09;;;21.38;100.00
12795;BME280;6461;42.666;23.296;2022-08-21T00:28:29;94136.63;;;21.27;100.00
12795;BME280;6461;42.666;23.296;2022-08-21T00:30:57;94162.75;;;21.48;100.00
12795;BME280;6461;42.666;23.296;2022-08-21T00:33:25;94155.81;;;21.40;100.00
12795;BME280;6461;42.666;23.296;2022-08-21T00:35:52;94155.63;;;21.22;100.00
12795;BME280;6461;42.666;23.296;2022-08-21T00:38:19;94157.84;;;21.17;100.00
12795;BME280;6461;42.666;23.296;2022-08-21T00:40:48;94161.41;;;20.98;100.00
12795;BME280;6461;42.666;23.296;2022-08-21T00:43:19;94162.47;;;20.90;100.00
12795;BME280;6461;42.666;23.296;2022-08-21T00:45:46;94160.09;;;20.85;100.00
12795;BME280;6461;42.666;23.296;2022-08-21T00:48:15;94150.41;;;20.70;100.00
12795;BME280;6461;42.666;23.296;2022-08-21T00:50:44;94162.53;;;20.94;100.00
12795;BME280;6461;42.666;23.296;2022-08-21T00:53:13;94167.63;;;20.76;100.00
12795;BME280;6461;42.666;23.296;2022-08-21T00:55:41;94162.09;;;20.92;100.00
12795;BME280;6461;42.666;23.296;2022-08-21T00:58:09;94168.34;;;21.03;100.00
12795;BME280;6461;42.666;23.296;2022-08-21T01:00:40;94157.38;;;21.08;100.00
12795;BME280;6461;42.666;23.296;2022-08-21T01:03:11;94153.53;;;21.09;100.00
12795;BME280;6461;42.666;23.296;2022-08-21T01:05:39;94152.13;;;21.15;100.00
12795;BME280;6461;42.666;23.296;2022-08-21T01:08:08;94134.78;;;21.02;100.00
12795;BME280;6461;42.666;23.296;2022-08-21T01:10:34;94152.91;;;21.19;100.00
12795;BME280;6461;42.666;23.296;2022-08-21T01:13:02;94143.34;;;21.14;100.00
12795;BME280;6461;42.666;23.296;2022-08-21T01:15:33;94125.72;;;21.06;100.00
12795;BME280;6461;42.666;23.296;2022-08-21T01:18:00;94135.03;;;21.23;100.00
12795;BME280;6461;42.666;23.296;2022-08-21T01:20:28;94141.56;;;21.29;100.00
12795;BME280;6461;42.666;23.296;2022-08-21T01:22:56;94129.41;;;21.31;100.00
12795;BME280;6461;42.666;23.296;2022-08-21T01:25:23;94123.97;;;21.24;100.00
12795;BME280;6461;42.666;23.296;2022-08-21T01:27:49;94129.09;;;21.36;100.00
12795;BME280;6461;42.666;23.296;2022-08-21T01:30:17;94127.53;;;21.02;100.00
12795;BME280;6461;42.666;23.296;2022-08-21T01:32:44;94133.91;;;20.94;100.00
12795;BME280;6461;42.666;23.296;2022-08-21T01:35:11;94131.88;;;21.14;100.00
12795;BME280;6461;42.666;23.296;2022-08-21T01:37:38;94141.09;;;21.20;100.00
12795;BME280;6461;42.666;23.296;2022-08-21T01:40:08;94141.75;;;21.10;100.00
12795;BME280;6461;42.666;23.296;2022-08-21T01:42:35;94137.00;;;20.67;100.00
12795;BME280;6461;42.666;23.296;2022-08-21T01:45:03;94140.34;;;20.90;100.00
12795;BME280;6461;42.666;23.296;2022-08-21T01:47:30;94137.34;;;20.95;100.00
12795;BME280;6461;42.666;23.296;2022-08-21T01:49:58;94141.19;;;20.97;100.00
12795;BME280;6461;42.666;23.296;2022-08-21T01:52:25;94143.78;;;20.90;100.00
12795;BME280;6461;42.666;23.296;2022-08-21T01:54:52;94135.41;;;20.62;100.00
12795;BME280;6461;42.666;23.296;2022-08-21T01:57:21;94128.09;;;20.55;100.00
12795;BME280;6461;42.666;23.296;2022-08-21T01:59:48;94126.34;;;20.67;100.00
12795;BME280;6461;42.666;23.296;2022-08-21T02:02:14;94141.75;;;20.80;100.00
12795;BME280;6461;42.666;23.296;2022-08-21T02:04:41;94149.84;;;20.87;100.00
12795;BME280;6461;42.666;23.296;2022-08-21T02:07:08;94143.38;;;20.88;100.00
12795;BME280;6461;42.666;23.296;2022-08-21T02:09:35;94148.41;;;20.93;100.00
12795;BME280;6461;42.666;23.296;2022-08-21T02:12:01;94156.00;;;20.91;100.00
12795;BME280;6461;42.666;23.296;2022-08-21T02:14:30;94145.38;;;20.95;100.00
12795;BME280;6461;42.666;23.296;2022-08-21T02:16:56;94152.69;;;21.01;100.00
12795;BME280;6461;42.666;23.296;2022-08-21T02:19:23;94143.91;;;21.01;100.00
12795;BME280;6461;42.666;23.296;2022-08-21T02:21:50;94152.03;;;21.08;100.00
12795;BME280;6461;42.666;23.296;2022-08-21T02:24:17;94154.28;;;21.06;100.00
12795;BME280;6461;42.666;23.296;2022-08-21T02:26:44;94156.22;;;21.09;100.00
12795;BME280;6461;42.666;23.296;2022-08-21T02:29:10;94140.84;;;20.99;100.00
12795;BME280;6461;42.666;23.296;2022-08-21T02:31:39;94143.88;;;20.97;100.00
12795;BME280;6461;42.666;23.296;2022-08-21T02:34:06;94149.69;;;21.03;100.00
12795;BME280;6461;42.666;23.296;2022-08-21T02:36:34;94177.25;;;21.14;100.00
12795;BME280;6461;42.666;23.296;2022-08-21T02:39:00;94168.84;;;21.12;100.00
12795;BME280;6461;42.666;23.296;2022-08-21T02:41:27;94162.00;;;21.11;100.00
12795;BME280;6461;42.666;23.296;2022-08-21T02:43:54;94165.75;;;21.06;100.00
12795;BME280;6461;42.666;23.296;2022-08-21T02:46:21;94151.09;;;20.97;100.00
12795;BME280;6461;42.666;23.296;2022-08-21T02:48:49;94161.91;;;21.04;100.00
12795;BME280;6461;42.666;23.296;2022-08-21T02:51:18;94161.53;;;21.05;100.00
12795;BME280;6461;42.666;23.296;2022-08-21T02:53:48;94160.41;;;21.06;100.00
12795;BME280;6461;42.666;23.296;2022-08-21T02:56:18;94156.22;;;21.09;100.00
12795;BME280;6461;42.666;23.296;2022-08-21T02:58:48;94157.06;;;21.13;100.00
12795;BME280;6461;42.666;23.296;2022-08-21T03:01:16;94153.63;;;21.16;100.00
12795;BME280;6461;42.666;23.296;2022-08-21T03:03:44;94163.94;;;21.17;100.00
12795;BME280;6461;42.666;23.296;2022-08-21T03:06:13;94166.97;;;21.12;100.00
12795;BME280;6461;42.666;23.296;2022-08-21T03:08:40;94161.66;;;21.16;100.00
12795;BME280;6461;42.666;23.296;2022-08-21T03:11:10;94167.38;;;21.18;100.00
12795;BME280;6461;42.666;23.296;2022-08-21T03:13:37;94155.94;;;21.17;100.00
12795;BME280;6461;42.666;23.296;2022-08-21T03:16:03;94153.25;;;21.17;100.00
12795;BME280;6461;42.666;23.296;2022-08-21T03:18:31;94162.41;;;21.16;100.00
12795;BME280;6461;42.666;23.296;2022-08-21T03:20:57;94164.69;;;21.14;100.00
12795;BME280;6461;42.666;23.296;2022-08-21T03:23:25;94173.09;;;21.16;100.00
12795;BME280;6461;42.666;23.296;2022-08-21T03:25:52;94158.56;;;21.14;100.00
12795;BME280;6461;42.666;23.296;2022-08-21T03:28:19;94154.00;;;21.14;100.00
12795;BME280;6461;42.666;23.296;2022-08-21T03:30:47;94156.22;;;21.09;100.00
12795;BME280;6461;42.666;23.296;2022-08-21T03:33:14;94156.22;;;21.09;100.00
12795;BME280;6461;42.666;23.296;2022-08-21T03:35:40;94151.34;;;21.14;100.00
12795;BME280;6461;42.666;23.296;2022-08-21T03:38:07;94147.19;;;21.17;100.00
12795;BME280;6461;42.666;23.296;2022-08-21T03:40:35;94147.22;;;21.20;100.00
12795;BME280;6461;42.666;23.296;2022-08-21T03:43:02;94152.19;;;21.22;100.00
12795;BME280;6461;42.666;23.296;2022-08-21T03:45:29;94149.88;;;21.20;100.00
12795;BME280;6461;42.666;23.296;2022-08-21T03:47:56;94155.59;;;21.19;100.00
12795;BME280;6461;42.666;23.296;2022-08-21T03:50:23;94155.19;;;21.17;100.00
12795;BME280;6461;42.666;23.296;2022-08-21T03:52:50;94164.47;;;21.00;100.00
12795;BME280;6461;42.666;23.296;2022-08-21T03:55:17;94162.69;;;21.04;100.00
12795;BME280;6461;42.666;23.296;2022-08-21T03:57:45;94178.34;;;21.09;100.00
12795;BME280;6461;42.666;23.296;2022-08-21T04:00:14;94177.56;;;21.09;100.00
12795;BME280;6461;42.666;23.296;2022-08-21T04:02:41;94176.81;;;21.08;100.00
12795;BME280;6461;42.666;23.296;2022-08-21T04:05:09;94176.06;;;21.08;100.00
12795;BME280;6461;42.666;23.296;2022-08-21T04:07:35;94177.91;;;21.04;100.00
12795;BME280;6461;42.666;23.296;2022-08-21T04:10:03;94179.03;;;21.03;100.00
12795;BME280;6461;42.666;23.296;2022-08-21T04:12:30;94184.38;;;20.77;100.00
12795;BME280;6461;42.666;23.296;2022-08-21T04:14:58;94182.97;;;20.83;100.00
12795;BME280;6461;42.666;23.296;2022-08-21T04:17:26;94186.97;;;20.70;100.00
12795;BME280;6461;42.666;23.296;2022-08-21T04:19:53;94175.56;;;20.73;100.00
12795;BME280;6461;42.666;23.296;2022-08-21T04:22:20;94167.50;;;20.66;100.00
12795;BME280;6461;42.666;23.296;2022-08-21T04:24:47;94175.16;;;20.71;100.00
12795;BME280;6461;42.666;23.296;2022-08-21T04:27:14;94167.81;;;20.60;100.00
12795;BME280;6461;42.666;23.296;2022-08-21T04:29:41;94177.13;;;20.47;100.00
12795;BME280;6461;42.666;23.296;2022-08-21T04:32:09;94172.50;;;20.44;100.00
12795;BME280;6461;42.666;23.296;2022-08-21T04:34:35;94179.28;;;20.38;100.00
12795;BME280;6461;42.666;23.296;2022-08-21T04:37:02;94185.13;;;20.47;100.00
12795;BME280;6461;42.666;23.296;2022-08-21T04:39:29;94185.19;;;20.51;100.00
12795;BME280;6461;42.666;23.296;2022-08-21T04:41:55;94180.25;;;20.53;100.00
12795;BME280;6461;42.666;23.296;2022-08-21T04:44:22;94174.91;;;20.53;100.00
12795;BME280;6461;42.666;23.296;2022-08-21T04:46:48;94169.25;;;20.54;100.00
12795;BME280;6461;42.666;23.296;2022-08-21T04:49:16;94172.22;;;20.49;100.00
12795;BME280;6461;42.666;23.296;2022-08-21T04:51:43;94176.06;;;20.52;100.00
12795;BME280;6461;42.666;23.296;2022-08-21T04:54:12;94170.09;;;20.62;100.00
12795;BME280;6461;42.666;23.296;2022-08-21T04:56:41;94167.91;;;20.68;100.00
12795;BME280;6461;42.666;23.296;2022-08-21T04:59:11;94166.44;;;20.74;100.00
12795;BME280;6461;42.666;23.296;2022-08-21T05:01:40;94164.22;;;20.79;100.00
12795;BME280;6461;42.666;23.296;2022-08-21T05:04:10;94158.03;;;20.72;100.00
12795;BME280;6461;42.666;23.296;2022-08-21T05:06:43;94176.94;;;20.89;100.00
12795;BME280;6461;42.666;23.296;2022-08-21T05:09:12;94175.91;;;20.97;100.00
12795;BME280;6461;42.666;23.296;2022-08-21T05:11:40;94169.34;;;20.91;100.00
12795;BME280;6461;42.666;23.296;2022-08-21T05:14:08;94181.00;;;21.06;100.00
12795;BME280;6461;42.666;23.296;2022-08-21T05:16:34;94181.81;;;20.84;100.00
12795;BME280;6461;42.666;23.296;2022-08-21T05:19:01;94179.75;;;21.00;100.00
12795;BME280;6461;42.666;23.296;2022-08-21T05:21:27;94177.53;;;21.05;100.00
12795;BME280;6461;42.666;23.296;2022-08-21T05:23:55;94188.41;;;21.19;100.00
12795;BME280;6461;42.666;23.296;2022-08-21T05:26:22;94168.69;;;21.31;100.00
12795;BME280;6461;42.666;23.296;2022-08-21T05:28:48;94174.72;;;21.24;100.00
12795;BME280;6461;42.666;23.296;2022-08-21T05:31:15;94169.44;;;21.28;100.00
12795;BME280;6461;42.666;23.296;2022-08-21T05:33:41;94178.09;;;20.92;100.00
12795;BME280;6461;42.666;23.296;2022-08-21T05:36:08;94167.84;;;21.23;100.00
12795;BME280;6461;42.666;23.296;2022-08-21T05:38:34;94164.59;;;21.41;100.00
12795;BME280;6461;42.666;23.296;2022-08-21T05:41:02;94165.88;;;21.54;100.00
12795;BME280;6461;42.666;23.296;2022-08-21T05:43:29;94167.44;;;21.58;100.00
12795;BME280;6461;42.666;23.296;2022-08-21T05:45:55;94157.59;;;21.69;100.00
12795;BME280;6461;42.666;23.296;2022-08-21T05:48:23;94161.16;;;21.80;100.00
12795;BME280;6461;42.666;23.296;2022-08-21T05:50:50;94160.09;;;21.88;100.00
12795;BME280;6461;42.666;23.296;2022-08-21T05:53:17;94153.31;;;21.98;100.00
12795;BME280;6461;42.666;23.296;2022-08-21T05:55:44;94150.88;;;21.82;100.00
12795;BME280;6461;42.666;23.296;2022-08-21T05:58:13;94153.50;;;21.79;100.00
12795;BME280;6461;42.666;23.296;2022-08-21T06:00:40;94159.38;;;21.91;100.00
12795;BME280;6461;42.666;23.296;2022-08-21T06:03:11;94143.69;;;21.50;100.00
12795;BME280;6461;42.666;23.296;2022-08-21T06:05:38;94167.09;;;21.26;100.00
12795;BME280;6461;42.666;23.296;2022-08-21T06:08:05;94160.63;;;21.64;100.00
12795;BME280;6461;42.666;23.296;2022-08-21T06:10:32;94155.50;;;21.85;100.00
12795;BME280;6461;42.666;23.296;2022-08-21T06:12:58;94156.75;;;21.58;100.00
12795;BME280;6461;42.666;23.296;2022-08-21T06:15:27;94161.53;;;21.79;100.00
12795;BME280;6461;42.666;23.296;2022-08-21T06:17:54;94159.00;;;21.56;100.00
12795;BME280;6461;42.666;23.296;2022-08-21T06:20:22;94154.75;;;21.88;100.00
12795;BME280;6461;42.666;23.296;2022-08-21T06:22:49;94160.22;;;22.02;100.00
12795;BME280;6461;42.666;23.296;2022-08-21T06:25:15;94159.81;;;22.00;100.00
12795;BME280;6461;42.666;23.296;2022-08-21T06:27:42;94157.25;;;21.71;100.00
12795;BME280;6461;42.666;23.296;2022-08-21T06:30:10;94130.00;;;21.55;100.00
12795;BME280;6461;42.666;23.296;2022-08-21T06:32:38;94149.25;;;21.71;100.00
12795;BME280;6461;42.666;23.296;2022-08-21T06:35:05;94160.69;;;21.71;100.00
12795;BME280;6461;42.666;23.296;2022-08-21T06:37:32;94164.56;;;21.77;100.00
12795;BME280;6461;42.666;23.296;2022-08-21T06:39:59;94164.13;;;21.72;100.00
12795;BME280;6461;42.666;23.296;2022-08-21T06:42:25;94166.78;;;21.68;100.00
12795;BME280;6461;42.666;23.296;2022-08-21T06:44:52;94166.38;;;21.66;100.00
12795;BME280;6461;42.666;23.296;2022-08-21T06:47:19;94164.44;;;21.63;100.00
12795;BME280;6461;42.666;23.296;2022-08-21T06:49:47;94163.44;;;21.42;100.00
12795;BME280;6461;42.666;23.296;2022-08-21T06:52:14;94158.47;;;21.36;100.00
12795;BME280;6461;42.666;23.296;2022-08-21T06:54:40;94155.53;;;21.52;100.00
12795;BME280;6461;42.666;23.296;2022-08-21T06:57:07;94165.69;;;21.73;100.00
12795;BME280;6461;42.666;23.296;2022-08-21T06:59:33;94172.31;;;21.86;100.00
12795;BME280;6461;42.666;23.296;2022-08-21T07:02:00;94166.75;;;22.08;100.00
12795;BME280;6461;42.666;23.296;2022-08-21T07:04:26;94175.78;;;22.44;100.00
12795;BME280;6461;42.666;23.296;2022-08-21T07:06:54;94170.97;;;22.64;100.00
12795;BME280;6461;42.666;23.296;2022-08-21T07:09:21;94168.78;;;22.80;100.00
12795;BME280;6461;42.666;23.296;2022-08-21T07:11:49;94176.53;;;22.99;100.00
12795;BME280;6461;42.666;23.296;2022-08-21T07:14:16;94170.06;;;23.14;100.00
12795;BME280;6461;42.666;23.296;2022-08-21T07:16:43;94173.53;;;23.15;100.00
12795;BME280;6461;42.666;23.296;2022-08-21T07:19:10;94180.00;;;23.10;100.00
12795;BME280;6461;42.666;23.296;2022-08-21T07:21:36;94172.53;;;22.68;100.00
12795;BME280;6461;42.666;23.296;2022-08-21T07:24:04;94168.50;;;23.03;100.00
12795;BME280;6461;42.666;23.296;2022-08-21T07:26:31;94166.00;;;22.66;100.00
12795;BME280;6461;42.666;23.296;2022-08-21T07:28:58;94174.16;;;22.83;100.00
12795;BME280;6461;42.666;23.296;2022-08-21T07:31:25;94167.22;;;22.72;100.00
12795;BME280;6461;42.666;23.296;2022-08-21T07:33:52;94163.63;;;22.50;100.00
12795;BME280;6461;42.666;23.296;2022-08-21T07:36:21;94152.25;;;22.64;100.00
12795;BME280;6461;42.666;23.296;2022-08-21T07:38:47;94150.53;;;23.03;100.00
12795;BME280;6461;42.666;23.296;2022-08-21T07:41:18;94159.47;;;23.46;100.00
12795;BME280;6461;42.666;23.296;2022-08-21T07:43:45;94151.84;;;23.44;100.00
12795;BME280;6461;42.666;23.296;2022-08-21T07:46:12;94155.66;;;23.50;100.00
12795;BME280;6461;42.666;23.296;2022-08-21T07:48:39;94150.72;;;23.67;100.00
12795;BME280;6461;42.666;23.296;2022-08-21T07:51:08;94129.66;;;23.97;100.00
12795;BME280;6461;42.666;23.296;2022-08-21T07:53:36;94147.66;;;23.93;100.00
12795;BME280;6461;42.666;23.296;2022-08-21T07:56:03;94140.44;;;24.18;100.00
12795;BME280;6461;42.666;23.296;2022-08-21T07:58:31;94149.59;;;23.99;100.00
12795;BME280;6461;42.666;23.296;2022-08-21T08:00:58;94150.75;;;23.98;100.00
12795;BME280;6461;42.666;23.296;2022-08-21T08:03:25;94146.19;;;24.06;100.00
12795;BME280;6461;42.666;23.296;2022-08-21T08:05:52;94153.09;;;24.07;100.00
12795;BME280;6461;42.666;23.296;2022-08-21T08:08:18;94156.13;;;24.48;100.00
12795;BME280;6461;42.666;23.296;2022-08-21T08:10:45;94152.22;;;24.84;100.00
12795;BME280;6461;42.666;23.296;2022-08-21T08:13:11;94144.81;;;25.16;100.00
12795;BME280;6461;42.666;23.296;2022-08-21T08:15:39;94149.53;;;24.84;100.00
12795;BME280;6461;42.666;23.296;2022-08-21T08:18:06;94145.66;;;24.99;100.00
12795;BME280;6461;42.666;23.296;2022-08-21T08:20:33;94136.34;;;25.21;100.00
12795;BME280;6461;42.666;23.296;2022-08-21T08:22:59;94135.28;;;25.73;96.87
12795;BME280;6461;42.666;23.296;2022-08-21T08:25:26;94133.47;;;26.15;96.57
12795;BME280;6461;42.666;23.296;2022-08-21T08:27:53;94136.91;;;26.59;92.08
12795;BME280;6461;42.666;23.296;2022-08-21T08:30:20;94134.97;;;26.97;85.01
12795;BME280;6461;42.666;23.296;2022-08-21T08:32:48;94138.31;;;27.39;77.32
12795;BME280;6461;42.666;23.296;2022-08-21T08:35:14;94142.31;;;27.27;76.21
12795;BME280;6461;42.666;23.296;2022-08-21T08:37:41;94138.81;;;27.60;76.00
12795;BME280;6461;42.666;23.296;2022-08-21T08:40:11;94140.38;;;27.84;78.25
12795;BME280;6461;42.666;23.296;2022-08-21T08:42:38;94141.75;;;28.23;75.00
12795;BME280;6461;42.666;23.296;2022-08-21T08:45:06;94153.13;;;28.34;70.31
12795;BME280;6461;42.666;23.296;2022-08-21T08:47:34;94149.78;;;28.49;67.39
12795;BME280;6461;42.666;23.296;2022-08-21T08:50:05;94146.66;;;28.74;65.70
12795;BME280;6461;42.666;23.296;2022-08-21T08:52:33;94144.06;;;28.90;66.14
12795;BME280;6461;42.666;23.296;2022-08-21T08:55:01;94147.78;;;28.96;62.09
12795;BME280;6461;42.666;23.296;2022-08-21T08:57:28;94140.50;;;28.50;63.72
12795;BME280;6461;42.666;23.296;2022-08-21T08:59:56;94135.16;;;28.47;69.36
12795;BME280;6461;42.666;23.296;2022-08-21T09:02:24;94130.66;;;28.83;69.62
12795;BME280;6461;42.666;23.296;2022-08-21T09:04:52;94127.88;;;29.06;64.41
12795;BME280;6461;42.666;23.296;2022-08-21T09:07:22;94121.72;;;29.25;66.02
12795;BME280;6461;42.666;23.296;2022-08-21T09:10:02;94090.25;;;29.15;63.41
12795;BME280;6461;42.666;23.296;2022-08-21T09:12:33;94122.47;;;29.45;59.97
12795;BME280;6461;42.666;23.296;2022-08-21T09:15:02;94120.09;;;29.47;58.15
12795;BME280;6461;42.666;23.296;2022-08-21T09:17:35;94116.63;;;29.47;60.62
12795;BME280;6461;42.666;23.296;2022-08-21T09:20:08;94111.22;;;29.47;57.95
12795;BME280;6461;42.666;23.296;2022-08-21T09:22:42;94102.53;;;29.55;60.01
12795;BME280;6461;42.666;23.296;2022-08-21T09:25:12;94057.50;;;29.29;60.78
12795;BME280;6461;42.666;23.296;2022-08-21T09:27:42;94100.34;;;29.50;57.67
12795;BME280;6461;42.666;23.296;2022-08-21T09:30:09;94098.22;;;29.42;58.21
12795;BME280;6461;42.666;23.296;2022-08-21T09:32:36;94100.84;;;29.45;59.46
12795;BME280;6461;42.666;23.296;2022-08-21T09:35:04;94090.63;;;29.69;55.68
12795;BME280;6461;42.666;23.296;2022-08-21T09:37:32;94101.16;;;29.31;59.37
12795;BME280;6461;42.666;23.296;2022-08-21T09:40:01;94093.34;;;29.69;55.65
12795;BME280;6461;42.666;23.296;2022-08-21T09:42:31;94094.22;;;29.30;56.17
12795;BME280;6461;42.666;23.296;2022-08-21T09:45:10;94083.75;;;29.84;53.71
12795;BME280;6461;42.666;23.296;2022-08-21T09:47:40;94086.69;;;29.90;52.51
12795;BME280;6461;42.666;23.296;2022-08-21T09:50:13;94073.94;;;29.90;54.59
12795;BME280;6461;42.666;23.296;2022-08-21T09:52:45;94093.28;;;30.05;52.73
12795;BME280;6461;42.666;23.296;2022-08-21T09:55:23;94087.72;;;29.96;53.25
12795;BME280;6461;42.666;23.296;2022-08-21T09:58:11;94084.03;;;29.70;53.88
12795;BME280;6461;42.666;23.296;2022-08-21T10:00:38;94081.31;;;29.54;53.69
12795;BME280;6461;42.666;23.296;2022-08-21T10:03:11;94083.25;;;29.37;54.64
12795;BME280;6461;42.666;23.296;2022-08-21T10:05:39;94079.72;;;29.21;56.32
12795;BME280;6461;42.666;23.296;2022-08-21T10:08:16;94077.03;;;29.01;57.17
12795;BME280;6461;42.666;23.296;2022-08-21T10:10:44;94078.69;;;28.95;58.69
12795;BME280;6461;42.666;23.296;2022-08-21T10:13:12;94078.50;;;28.86;59.64
12795;BME280;6461;42.666;23.296;2022-08-21T10:15:42;94067.53;;;28.93;60.66
12795;BME280;6461;42.666;23.296;2022-08-21T10:18:16;94071.13;;;28.87;58.88
12795;BME280;6461;42.666;23.296;2022-08-21T10:20:47;94061.16;;;29.03;58.81
12795;BME280;6461;42.666;23.296;2022-08-21T10:23:20;94061.19;;;29.39;56.61
12795;BME280;6461;42.666;23.296;2022-08-21T10:25:57;94061.03;;;29.62;57.01
12795;BME280;6461;42.666;23.296;2022-08-21T10:28:32;94055.34;;;29.76;61.04
12795;BME280;6461;42.666;23.296;2022-08-21T10:31:10;94056.59;;;29.88;58.88
12795;BME280;6461;42.666;23.296;2022-08-21T10:33:50;94055.34;;;29.76;58.65
12795;BME280;6461;42.666;23.296;2022-08-21T10:36:26;94047.53;;;30.10;59.42
12795;BME280;6461;42.666;23.296;2022-08-21T10:39:08;94045.41;;;30.34;56.99
12795;BME280;6461;42.666;23.296;2022-08-21T10:42:10;94035.72;;;30.49;53.99
12795;BME280;6461;42.666;23.296;2022-08-21T10:44:49;94045.97;;;30.70;55.70
12795;BME280;6461;42.666;23.296;2022-08-21T10:47:29;94038.50;;;31.16;50.52
12795;BME280;6461;42.666;23.296;2022-08-21T10:50:05;94033.94;;;31.13;48.61
12795;BME280;6461;42.666;23.296;2022-08-21T10:52:46;94031.91;;;31.54;48.97
12795;BME280;6461;42.666;23.296;2022-08-21T10:55:18;94037.75;;;31.78;49.22
12795;BME280;6461;42.666;23.296;2022-08-21T10:57:49;94031.56;;;31.77;48.42
12795;BME280;6461;42.666;23.296;2022-08-21T11:00:20;94034.78;;;32.10;50.00
12795;BME280;6461;42.666;23.296;2022-08-21T11:02:52;94010.56;;;32.03;47.50
12795;BME280;6461;42.666;23.296;2022-08-21T11:05:24;94019.72;;;32.31;47.87
12795;BME280;6461;42.666;23.296;2022-08-21T11:07:55;94011.38;;;32.25;46.52
12795;BME280;6461;42.666;23.296;2022-08-21T11:10:25;94013.59;;;32.39;46.13
12795;BME280;6461;42.666;23.296;2022-08-21T11:12:56;94003.69;;;32.45;48.19
12795;BME280;6461;42.666;23.296;2022-08-21T11:15:36;93989.34;;;32.67;49.26
12795;BME280;6461;42.666;23.296;2022-08-21T11:18:16;94008.50;;;33.06;45.01
12795;BME280;6461;42.666;23.296;2022-08-21T11:20:50;93998.88;;;33.14;45.46
12795;BME280;6461;42.666;23.296;2022-08-21T11:23:21;94002.16;;;33.40;43.40
12795;BME280;6461;42.666;23.296;2022-08-21T11:25:53;93971.63;;;33.45;46.13
12795;BME280;6461;42.666;23.296;2022-08-21T11:28:23;93999.91;;;33.87;42.76
12795;BME280;6461;42.666;23.296;2022-08-21T11:30:52;93998.69;;;33.79;43.34
12795;BME280;6461;42.666;23.296;2022-08-21T11:33:27;94004.75;;;33.92;40.64
12795;BME280;6461;42.666;23.296;2022-08-21T11:36:02;93999.03;;;33.99;41.50
12795;BME280;6461;42.666;23.296;2022-08-21T11:38:35;93995.13;;;34.19;40.58
12795;BME280;6461;42.666;23.296;2022-08-21T11:41:08;93993.91;;;34.11;40.07
12795;BME280;6461;42.666;23.296;2022-08-21T11:43:41;93999.34;;;34.11;40.15
12795;BME280;6461;42.666;23.296;2022-08-21T11:46:15;93993.28;;;34.07;39.91
12795;BME280;6461;42.666;23.296;2022-08-21T11:48:45;93995.88;;;34.01;39.13
12795;BME280;6461;42.666;23.296;2022-08-21T11:51:16;93999.09;;;33.69;40.44
12795;BME280;6461;42.666;23.296;2022-08-21T11:53:46;93989.03;;;33.48;39.47
12795;BME280;6461;42.666;23.296;2022-08-21T11:56:21;93985.75;;;33.22;40.54
12795;BME280;6461;42.666;23.296;2022-08-21T11:58:55;93979.53;;;32.91;42.33
12795;BME280;6461;42.666;23.296;2022-08-21T12:01:26;93985.00;;;32.69;43.84
12795;BME280;6461;42.666;23.296;2022-08-21T12:03:57;93983.25;;;32.54;42.71
12795;BME280;6461;42.666;23.296;2022-08-21T12:06:31;93981.53;;;32.34;42.71
12795;BME280;6461;42.666;23.296;2022-08-21T12:09:01;93971.84;;;31.77;45.99
12795;BME280;6461;42.666;23.296;2022-08-21T12:11:29;93963.09;;;31.23;46.35
12795;BME280;6461;42.666;23.296;2022-08-21T12:13:59;93918.28;;;30.93;48.46
12795;BME280;6461;42.666;23.296;2022-08-21T12:16:32;93964.81;;;30.92;48.46
12795;BME280;6461;42.666;23.296;2022-08-21T12:19:04;93974.91;;;30.91;47.08
12795;BME280;6461;42.666;23.296;2022-08-21T12:21:31;93976.91;;;30.75;47.89
12795;BME280;6461;42.666;23.296;2022-08-21T12:24:05;93971.16;;;30.60;50.37
12795;BME280;6461;42.666;23.296;2022-08-21T12:26:48;93978.16;;;30.45;49.38
12795;BME280;6461;42.666;23.296;2022-08-21T12:29:23;93976.84;;;30.21;50.47
12795;BME280;6461;42.666;23.296;2022-08-21T12:31:58;93910.38;;;29.59;52.29
12795;BME280;6461;42.666;23.296;2022-08-21T12:34:32;93959.34;;;29.48;52.26
12795;BME280;6461;42.666;23.296;2022-08-21T12:37:03;93973.63;;;29.33;53.65
12795;BME280;6461;42.666;23.296;2022-08-21T12:39:34;93955.16;;;28.76;54.11
12795;BME280;6461;42.666;23.296;2022-08-21T12:42:06;93937.09;;;28.73;54.21
12795;BME280;6461;42.666;23.296;2022-08-21T12:44:43;93950.97;;;28.91;54.84
12795;BME280;6461;42.666;23.296;2022-08-21T12:47:17;93964.34;;;28.98;55.78
12795;BME280;6461;42.666;23.296;2022-08-21T12:49:53;93970.66;;;28.92;55.20
12795;BME280;6461;42.666;23.296;2022-08-21T12:52:25;93961.63;;;28.98;55.36
12795;BME280;6461;42.666;23.296;2022-08-21T12:54:55;93963.47;;;28.85;55.17
12795;BME280;6461;42.666;23.296;2022-08-21T12:57:23;93962.34;;;28.82;55.81
12795;BME280;6461;42.666;23.296;2022-08-21T12:59:57;93966.16;;;28.85;56.55
12795;BME280;6461;42.666;23.296;2022-08-21T13:02:28;93953.75;;;28.32;57.85